sensor_id;sensor_type;location;lat;lon;timestamp;P1;durP1;ratioP1;P2;durP2;ratioP2
61962;SDS011;47927;42.646;23.096;2023-06-22T00:00:55;7.72;;;5.35;;
61962;SDS011;47927;42.646;23.096;2023-06-22T00:03:21;7.45;;;5.68;;
61962;SDS011;47927;42.646;23.096;2023-06-22T00:05:48;7.03;;;5.30;;
61962;SDS011;47927;42.646;23.096;2023-06-22T00:08:14;7.00;;;5.05;;
61962;SDS011;47927;42.646;23.096;2023-06-22T00:10:40;6.78;;;4.78;;
61962;SDS011;47927;42.646;23.096;2023-06-22T00:13:07;7.18;;;5.30;;
61962;SDS011;47927;42.646;23.096;2023-06-22T00:15:33;8.02;;;5.55;;
61962;SDS011;47927;42.646;23.096;2023-06-22T00:17:59;12.38;;;5.05;;
61962;SDS011;47927;42.646;23.096;2023-06-22T00:20:25;7.47;;;5.10;;
61962;SDS011;47927;42.646;23.096;2023-06-22T00:22:55;7.95;;;5.80;;
61962;SDS011;47927;42.646;23.096;2023-06-22T00:25:21;8.98;;;5.18;;
61962;SDS011;47927;42.646;23.096;2023-06-22T00:27:47;7.50;;;5.15;;
61962;SDS011;47927;42.646;23.096;2023-06-22T00:30:13;8.23;;;5.28;;
61962;SDS011;47927;42.646;23.096;2023-06-22T00:32:40;8.30;;;5.53;;
61962;SDS011;47927;42.646;23.096;2023-06-22T00:35:06;7.47;;;5.13;;
61962;SDS011;47927;42.646;23.096;2023-06-22T00:37:32;7.60;;;5.32;;
61962;SDS011;47927;42.646;23.096;2023-06-22T00:39:58;7.00;;;5.50;;
61962;SDS011;47927;42.646;23.096;2023-06-22T00:42:24;8.23;;;5.63;;
61962;SDS011;47927;42.646;23.096;2023-06-22T00:44:49;6.97;;;5.22;;
61962;SDS011;47927;42.646;23.096;2023-06-22T00:47:16;8.27;;;5.15;;
61962;SDS011;47927;42.646;23.096;2023-06-22T00:49:43;6.93;;;5.10;;
61962;SDS011;47927;42.646;23.096;2023-06-22T00:52:10;9.82;;;5.20;;
61962;SDS011;47927;42.646;23.096;2023-06-22T00:54:41;6.57;;;4.77;;
61962;SDS011;47927;42.646;23.096;2023-06-22T00:57:13;7.70;;;5.70;;
61962;SDS011;47927;42.646;23.096;2023-06-22T00:59:42;7.13;;;5.22;;
61962;SDS011;47927;42.646;23.096;2023-06-22T01:02:09;7.97;;;5.40;;
61962;SDS011;47927;42.646;23.096;2023-06-22T01:04:35;7.30;;;5.32;;
61962;SDS011;47927;42.646;23.096;2023-06-22T01:07:44;6.85;;;4.72;;
61962;SDS011;47927;42.646;23.096;2023-06-22T01:12:51;7.80;;;5.57;;
61962;SDS011;47927;42.646;23.096;2023-06-22T01:17:56;8.55;;;5.40;;
61962;SDS011;47927;42.646;23.096;2023-06-22T01:20:24;9.13;;;5.40;;
61962;SDS011;47927;42.646;23.096;2023-06-22T01:25:45;6.65;;;5.35;;
61962;SDS011;47927;42.646;23.096;2023-06-22T01:31:10;8.57;;;5.18;;
61962;SDS011;47927;42.646;23.096;2023-06-22T01:33:39;7.35;;;5.50;;
61962;SDS011;47927;42.646;23.096;2023-06-22T01:36:07;8.68;;;5.30;;
61962;SDS011;47927;42.646;23.096;2023-06-22T01:38:34;6.78;;;5.28;;
61962;SDS011;47927;42.646;23.096;2023-06-22T01:41:02;6.60;;;5.30;;
61962;SDS011;47927;42.646;23.096;2023-06-22T01:43:29;7.57;;;4.97;;
61962;SDS011;47927;42.646;23.096;2023-06-22T01:45:55;8.80;;;5.43;;
61962;SDS011;47927;42.646;23.096;2023-06-22T01:48:22;7.35;;;5.75;;
61962;SDS011;47927;42.646;23.096;2023-06-22T01:50:48;8.35;;;5.45;;
61962;SDS011;47927;42.646;23.096;2023-06-22T01:53:16;8.68;;;5.75;;
61962;SDS011;47927;42.646;23.096;2023-06-22T01:55:41;10.60;;;6.03;;
61962;SDS011;47927;42.646;23.096;2023-06-22T01:58:07;8.88;;;5.22;;
61962;SDS011;47927;42.646;23.096;2023-06-22T02:00:33;7.95;;;5.57;;
61962;SDS011;47927;42.646;23.096;2023-06-22T02:03:05;6.72;;;4.82;;
61962;SDS011;47927;42.646;23.096;2023-06-22T02:05:37;6.55;;;5.15;;
61962;SDS011;47927;42.646;23.096;2023-06-22T02:08:09;8.63;;;5.10;;
61962;SDS011;47927;42.646;23.096;2023-06-22T02:10:37;9.15;;;5.05;;
61962;SDS011;47927;42.646;23.096;2023-06-22T02:13:06;8.73;;;4.95;;
61962;SDS011;47927;42.646;23.096;2023-06-22T02:15:34;7.43;;;5.15;;
61962;SDS011;47927;42.646;23.096;2023-06-22T02:18:00;7.10;;;5.18;;
61962;SDS011;47927;42.646;23.096;2023-06-22T02:20:26;9.88;;;5.82;;
61962;SDS011;47927;42.646;23.096;2023-06-22T02:22:52;8.05;;;4.72;;
61962;SDS011;47927;42.646;23.096;2023-06-22T02:25:17;6.97;;;5.32;;
61962;SDS011;47927;42.646;23.096;2023-06-22T02:27:45;11.48;;;6.18;;
61962;SDS011;47927;42.646;23.096;2023-06-22T02:30:10;6.90;;;5.30;;
61962;SDS011;47927;42.646;23.096;2023-06-22T02:32:38;8.95;;;5.07;;
61962;SDS011;47927;42.646;23.096;2023-06-22T02:35:06;8.65;;;5.20;;
61962;SDS011;47927;42.646;23.096;2023-06-22T02:37:33;7.35;;;5.10;;
61962;SDS011;47927;42.646;23.096;2023-06-22T02:40:01;6.90;;;5.45;;
61962;SDS011;47927;42.646;23.096;2023-06-22T02:42:28;6.78;;;5.07;;
61962;SDS011;47927;42.646;23.096;2023-06-22T02:44:53;8.60;;;5.28;;
61962;SDS011;47927;42.646;23.096;2023-06-22T02:47:20;7.13;;;4.82;;
61962;SDS011;47927;42.646;23.096;2023-06-22T02:49:47;7.20;;;5.25;;
61962;SDS011;47927;42.646;23.096;2023-06-22T02:52:13;7.10;;;5.30;;
61962;SDS011;47927;42.646;23.096;2023-06-22T02:54:38;8.10;;;4.85;;
61962;SDS011;47927;42.646;23.096;2023-06-22T02:57:04;9.13;;;4.85;;
61962;SDS011;47927;42.646;23.096;2023-06-22T02:59:30;7.60;;;5.03;;
61962;SDS011;47927;42.646;23.096;2023-06-22T03:02:01;8.85;;;5.47;;
61962;SDS011;47927;42.646;23.096;2023-06-22T03:04:30;7.60;;;5.65;;
61962;SDS011;47927;42.646;23.096;2023-06-22T03:06:56;9.70;;;5.50;;
61962;SDS011;47927;42.646;23.096;2023-06-22T03:09:27;8.70;;;5.57;;
61962;SDS011;47927;42.646;23.096;2023-06-22T03:11:55;8.95;;;5.28;;
61962;SDS011;47927;42.646;23.096;2023-06-22T03:14:24;7.68;;;5.45;;
61962;SDS011;47927;42.646;23.096;2023-06-22T03:16:52;6.90;;;5.40;;
61962;SDS011;47927;42.646;23.096;2023-06-22T03:19:18;6.85;;;5.20;;
61962;SDS011;47927;42.646;23.096;2023-06-22T03:21:46;6.90;;;5.40;;
61962;SDS011;47927;42.646;23.096;2023-06-22T03:24:12;7.45;;;5.45;;
61962;SDS011;47927;42.646;23.096;2023-06-22T03:26:38;7.60;;;5.22;;
61962;SDS011;47927;42.646;23.096;2023-06-22T03:29:04;7.10;;;5.60;;
61962;SDS011;47927;42.646;23.096;2023-06-22T03:31:30;7.53;;;5.47;;
61962;SDS011;47927;42.646;23.096;2023-06-22T03:33:56;7.00;;;5.22;;
61962;SDS011;47927;42.646;23.096;2023-06-22T03:36:22;9.02;;;5.78;;
61962;SDS011;47927;42.646;23.096;2023-06-22T03:38:49;7.78;;;5.50;;
61962;SDS011;47927;42.646;23.096;2023-06-22T03:41:15;7.88;;;6.68;;
61962;SDS011;47927;42.646;23.096;2023-06-22T03:43:42;6.90;;;5.28;;
61962;SDS011;47927;42.646;23.096;2023-06-22T03:46:07;7.93;;;5.13;;
61962;SDS011;47927;42.646;23.096;2023-06-22T03:48:33;10.90;;;5.60;;
61962;SDS011;47927;42.646;23.096;2023-06-22T03:50:59;8.88;;;5.32;;
61962;SDS011;47927;42.646;23.096;2023-06-22T03:53:26;6.18;;;4.90;;
61962;SDS011;47927;42.646;23.096;2023-06-22T03:55:52;9.02;;;5.30;;
61962;SDS011;47927;42.646;23.096;2023-06-22T03:58:18;7.35;;;4.82;;
61962;SDS011;47927;42.646;23.096;2023-06-22T04:00:49;6.95;;;5.18;;
61962;SDS011;47927;42.646;23.096;2023-06-22T04:03:16;7.50;;;5.30;;
61962;SDS011;47927;42.646;23.096;2023-06-22T04:05:44;7.25;;;5.35;;
61962;SDS011;47927;42.646;23.096;2023-06-22T04:08:10;8.48;;;5.38;;
61962;SDS011;47927;42.646;23.096;2023-06-22T04:10:37;8.18;;;4.90;;
61962;SDS011;47927;42.646;23.096;2023-06-22T04:13:02;8.15;;;5.00;;
61962;SDS011;47927;42.646;23.096;2023-06-22T04:15:28;10.82;;;5.97;;
61962;SDS011;47927;42.646;23.096;2023-06-22T04:18:02;6.35;;;4.78;;
61962;SDS011;47927;42.646;23.096;2023-06-22T04:20:28;11.05;;;4.90;;
61962;SDS011;47927;42.646;23.096;2023-06-22T04:22:54;5.57;;;4.40;;
61962;SDS011;47927;42.646;23.096;2023-06-22T04:25:25;8.77;;;4.60;;
61962;SDS011;47927;42.646;23.096;2023-06-22T04:27:51;9.57;;;4.93;;
61962;SDS011;47927;42.646;23.096;2023-06-22T04:30:16;6.00;;;4.72;;
61962;SDS011;47927;42.646;23.096;2023-06-22T04:32:43;7.80;;;5.22;;
61962;SDS011;47927;42.646;23.096;2023-06-22T04:35:09;9.52;;;4.38;;
61962;SDS011;47927;42.646;23.096;2023-06-22T04:37:35;6.93;;;4.85;;
61962;SDS011;47927;42.646;23.096;2023-06-22T04:40:01;5.88;;;4.60;;
61962;SDS011;47927;42.646;23.096;2023-06-22T04:42:29;7.88;;;5.30;;
61962;SDS011;47927;42.646;23.096;2023-06-22T04:44:55;7.38;;;5.20;;
61962;SDS011;47927;42.646;23.096;2023-06-22T04:47:21;5.28;;;4.15;;
61962;SDS011;47927;42.646;23.096;2023-06-22T04:49:46;7.88;;;5.00;;
61962;SDS011;47927;42.646;23.096;2023-06-22T04:52:12;6.70;;;5.10;;
61962;SDS011;47927;42.646;23.096;2023-06-22T04:54:45;8.20;;;4.93;;
61962;SDS011;47927;42.646;23.096;2023-06-22T04:57:13;11.05;;;5.50;;
61962;SDS011;47927;42.646;23.096;2023-06-22T04:59:39;9.77;;;5.35;;
61962;SDS011;47927;42.646;23.096;2023-06-22T05:02:06;11.80;;;5.55;;
61962;SDS011;47927;42.646;23.096;2023-06-22T05:04:33;10.45;;;5.60;;
61962;SDS011;47927;42.646;23.096;2023-06-22T05:07:01;14.57;;;6.20;;
61962;SDS011;47927;42.646;23.096;2023-06-22T05:09:27;12.80;;;5.68;;
61962;SDS011;47927;42.646;23.096;2023-06-22T05:11:54;14.27;;;6.35;;
61962;SDS011;47927;42.646;23.096;2023-06-22T05:14:19;11.85;;;6.10;;
61962;SDS011;47927;42.646;23.096;2023-06-22T05:16:45;10.13;;;5.00;;
61962;SDS011;47927;42.646;23.096;2023-06-22T05:19:11;8.35;;;5.47;;
61962;SDS011;47927;42.646;23.096;2023-06-22T05:21:37;18.48;;;7.70;;
61962;SDS011;47927;42.646;23.096;2023-06-22T05:24:03;16.77;;;7.05;;
61962;SDS011;47927;42.646;23.096;2023-06-22T05:26:29;14.95;;;8.00;;
61962;SDS011;47927;42.646;23.096;2023-06-22T05:28:56;13.60;;;7.53;;
61962;SDS011;47927;42.646;23.096;2023-06-22T05:31:22;14.30;;;7.60;;
61962;SDS011;47927;42.646;23.096;2023-06-22T05:33:50;18.98;;;7.72;;
61962;SDS011;47927;42.646;23.096;2023-06-22T05:36:17;12.80;;;5.90;;
61962;SDS011;47927;42.646;23.096;2023-06-22T05:38:45;8.35;;;6.07;;
61962;SDS011;47927;42.646;23.096;2023-06-22T05:41:11;11.82;;;6.57;;
61962;SDS011;47927;42.646;23.096;2023-06-22T05:43:36;10.32;;;6.05;;
61962;SDS011;47927;42.646;23.096;2023-06-22T05:46:03;14.13;;;5.97;;
61962;SDS011;47927;42.646;23.096;2023-06-22T05:48:29;12.10;;;5.82;;
61962;SDS011;47927;42.646;23.096;2023-06-22T05:50:55;10.55;;;6.03;;
61962;SDS011;47927;42.646;23.096;2023-06-22T05:53:20;23.58;;;17.00;;
61962;SDS011;47927;42.646;23.096;2023-06-22T05:55:46;12.32;;;6.53;;
61962;SDS011;47927;42.646;23.096;2023-06-22T05:58:12;12.77;;;5.80;;
61962;SDS011;47927;42.646;23.096;2023-06-22T06:00:38;11.70;;;5.43;;
61962;SDS011;47927;42.646;23.096;2023-06-22T06:03:05;13.18;;;5.80;;
61962;SDS011;47927;42.646;23.096;2023-06-22T06:05:32;7.88;;;5.25;;
61962;SDS011;47927;42.646;23.096;2023-06-22T06:07:59;10.57;;;5.75;;
61962;SDS011;47927;42.646;23.096;2023-06-22T06:10:25;9.48;;;5.40;;
61962;SDS011;47927;42.646;23.096;2023-06-22T06:12:51;9.88;;;5.00;;
61962;SDS011;47927;42.646;23.096;2023-06-22T06:15:17;14.70;;;5.82;;
61962;SDS011;47927;42.646;23.096;2023-06-22T06:17:46;13.68;;;5.50;;
61962;SDS011;47927;42.646;23.096;2023-06-22T06:20:13;11.85;;;5.90;;
61962;SDS011;47927;42.646;23.096;2023-06-22T06:22:38;11.82;;;5.43;;
61962;SDS011;47927;42.646;23.096;2023-06-22T06:25:05;12.82;;;5.90;;
61962;SDS011;47927;42.646;23.096;2023-06-22T06:27:30;9.23;;;6.05;;
61962;SDS011;47927;42.646;23.096;2023-06-22T06:29:56;12.48;;;5.88;;
61962;SDS011;47927;42.646;23.096;2023-06-22T06:32:22;13.45;;;6.45;;
61962;SDS011;47927;42.646;23.096;2023-06-22T06:34:47;13.50;;;6.05;;
61962;SDS011;47927;42.646;23.096;2023-06-22T06:37:13;11.65;;;6.18;;
61962;SDS011;47927;42.646;23.096;2023-06-22T06:39:38;8.05;;;5.15;;
61962;SDS011;47927;42.646;23.096;2023-06-22T06:42:04;8.70;;;5.70;;
61962;SDS011;47927;42.646;23.096;2023-06-22T06:44:30;11.52;;;5.78;;
61962;SDS011;47927;42.646;23.096;2023-06-22T06:46:55;11.07;;;6.00;;
61962;SDS011;47927;42.646;23.096;2023-06-22T06:49:21;15.25;;;5.93;;
61962;SDS011;47927;42.646;23.096;2023-06-22T06:51:46;12.43;;;6.78;;
61962;SDS011;47927;42.646;23.096;2023-06-22T06:54:12;12.10;;;6.53;;
61962;SDS011;47927;42.646;23.096;2023-06-22T06:56:37;10.68;;;6.63;;
61962;SDS011;47927;42.646;23.096;2023-06-22T06:59:03;15.63;;;6.80;;
61962;SDS011;47927;42.646;23.096;2023-06-22T07:01:28;22.23;;;13.85;;
61962;SDS011;47927;42.646;23.096;2023-06-22T07:03:59;10.98;;;6.80;;
61962;SDS011;47927;42.646;23.096;2023-06-22T07:06:25;11.48;;;6.88;;
61962;SDS011;47927;42.646;23.096;2023-06-22T07:11:20;13.45;;;7.35;;
61962;SDS011;47927;42.646;23.096;2023-06-22T07:13:45;14.48;;;7.07;;
61962;SDS011;47927;42.646;23.096;2023-06-22T07:16:11;13.38;;;7.25;;
61962;SDS011;47927;42.646;23.096;2023-06-22T07:18:36;14.20;;;6.57;;
61962;SDS011;47927;42.646;23.096;2023-06-22T07:21:02;11.60;;;7.22;;
61962;SDS011;47927;42.646;23.096;2023-06-22T07:23:31;12.75;;;7.00;;
61962;SDS011;47927;42.646;23.096;2023-06-22T07:25:56;16.90;;;7.20;;
61962;SDS011;47927;42.646;23.096;2023-06-22T07:28:22;20.70;;;7.57;;
61962;SDS011;47927;42.646;23.096;2023-06-22T07:30:48;16.02;;;7.63;;
61962;SDS011;47927;42.646;23.096;2023-06-22T07:33:13;14.30;;;7.63;;
61962;SDS011;47927;42.646;23.096;2023-06-22T07:35:39;21.52;;;8.05;;
61962;SDS011;47927;42.646;23.096;2023-06-22T07:38:04;19.25;;;7.43;;
61962;SDS011;47927;42.646;23.096;2023-06-22T07:40:30;19.15;;;7.75;;
61962;SDS011;47927;42.646;23.096;2023-06-22T07:42:55;23.23;;;8.02;;
61962;SDS011;47927;42.646;23.096;2023-06-22T07:45:21;19.27;;;6.82;;
61962;SDS011;47927;42.646;23.096;2023-06-22T07:47:46;16.17;;;7.47;;
61962;SDS011;47927;42.646;23.096;2023-06-22T07:50:12;16.80;;;8.10;;
61962;SDS011;47927;42.646;23.096;2023-06-22T07:52:38;31.77;;;8.40;;
61962;SDS011;47927;42.646;23.096;2023-06-22T07:55:03;20.60;;;8.57;;
61962;SDS011;47927;42.646;23.096;2023-06-22T07:57:30;29.13;;;8.88;;
61962;SDS011;47927;42.646;23.096;2023-06-22T08:00:02;24.20;;;9.13;;
61962;SDS011;47927;42.646;23.096;2023-06-22T08:02:37;20.20;;;7.68;;
61962;SDS011;47927;42.646;23.096;2023-06-22T08:05:06;14.45;;;7.65;;
61962;SDS011;47927;42.646;23.096;2023-06-22T08:07:34;10.55;;;6.55;;
61962;SDS011;47927;42.646;23.096;2023-06-22T08:10:03;9.98;;;6.18;;
61962;SDS011;47927;42.646;23.096;2023-06-22T08:12:29;9.85;;;6.45;;
61962;SDS011;47927;42.646;23.096;2023-06-22T08:14:55;11.27;;;6.13;;
61962;SDS011;47927;42.646;23.096;2023-06-22T08:17:22;12.95;;;6.70;;
61962;SDS011;47927;42.646;23.096;2023-06-22T08:19:48;8.73;;;5.90;;
61962;SDS011;47927;42.646;23.096;2023-06-22T08:22:15;8.90;;;6.18;;
61962;SDS011;47927;42.646;23.096;2023-06-22T08:24:41;9.57;;;6.40;;
61962;SDS011;47927;42.646;23.096;2023-06-22T08:27:07;16.35;;;6.30;;
61962;SDS011;47927;42.646;23.096;2023-06-22T08:29:34;11.02;;;7.38;;
61962;SDS011;47927;42.646;23.096;2023-06-22T08:32:00;24.30;;;21.02;;
61962;SDS011;47927;42.646;23.096;2023-06-22T08:34:25;14.00;;;11.70;;
61962;SDS011;47927;42.646;23.096;2023-06-22T08:36:53;10.23;;;7.00;;
61962;SDS011;47927;42.646;23.096;2023-06-22T08:39:19;13.13;;;6.82;;
61962;SDS011;47927;42.646;23.096;2023-06-22T08:41:47;9.25;;;6.78;;
61962;SDS011;47927;42.646;23.096;2023-06-22T08:44:13;9.00;;;5.78;;
61962;SDS011;47927;42.646;23.096;2023-06-22T08:46:39;8.20;;;6.25;;
61962;SDS011;47927;42.646;23.096;2023-06-22T08:49:06;11.30;;;7.13;;
61962;SDS011;47927;42.646;23.096;2023-06-22T08:51:32;6.93;;;6.25;;
61962;SDS011;47927;42.646;23.096;2023-06-22T08:53:57;7.38;;;6.22;;
61962;SDS011;47927;42.646;23.096;2023-06-22T08:56:23;14.73;;;6.20;;
61962;SDS011;47927;42.646;23.096;2023-06-22T08:58:48;12.60;;;5.97;;
61962;SDS011;47927;42.646;23.096;2023-06-22T09:01:14;25.75;;;8.52;;
61962;SDS011;47927;42.646;23.096;2023-06-22T09:03:40;8.57;;;6.15;;
61962;SDS011;47927;42.646;23.096;2023-06-22T09:06:06;9.82;;;7.68;;
61962;SDS011;47927;42.646;23.096;2023-06-22T09:08:34;7.05;;;5.65;;
61962;SDS011;47927;42.646;23.096;2023-06-22T09:11:00;9.80;;;7.68;;
61962;SDS011;47927;42.646;23.096;2023-06-22T09:13:26;7.53;;;6.05;;
61962;SDS011;47927;42.646;23.096;2023-06-22T09:15:53;8.18;;;5.90;;
61962;SDS011;47927;42.646;23.096;2023-06-22T09:18:18;8.02;;;6.10;;
61962;SDS011;47927;42.646;23.096;2023-06-22T09:20:44;6.90;;;5.88;;
61962;SDS011;47927;42.646;23.096;2023-06-22T09:23:10;8.15;;;5.53;;
61962;SDS011;47927;42.646;23.096;2023-06-22T09:25:36;10.38;;;7.65;;
61962;SDS011;47927;42.646;23.096;2023-06-22T09:28:01;12.60;;;10.27;;
61962;SDS011;47927;42.646;23.096;2023-06-22T09:30:27;7.03;;;5.47;;
61962;SDS011;47927;42.646;23.096;2023-06-22T09:32:52;6.43;;;5.55;;
61962;SDS011;47927;42.646;23.096;2023-06-22T09:35:19;9.23;;;5.68;;
61962;SDS011;47927;42.646;23.096;2023-06-22T09:37:45;12.93;;;6.82;;
61962;SDS011;47927;42.646;23.096;2023-06-22T09:40:11;6.32;;;5.72;;
61962;SDS011;47927;42.646;23.096;2023-06-22T09:42:38;9.55;;;5.82;;
61962;SDS011;47927;42.646;23.096;2023-06-22T09:45:04;6.50;;;5.55;;
61962;SDS011;47927;42.646;23.096;2023-06-22T09:47:30;7.10;;;5.63;;
61962;SDS011;47927;42.646;23.096;2023-06-22T09:49:56;6.18;;;5.55;;
61962;SDS011;47927;42.646;23.096;2023-06-22T09:52:24;7.43;;;5.72;;
61962;SDS011;47927;42.646;23.096;2023-06-22T09:54:49;6.28;;;5.68;;
61962;SDS011;47927;42.646;23.096;2023-06-22T09:57:15;6.55;;;5.75;;
61962;SDS011;47927;42.646;23.096;2023-06-22T09:59:40;7.47;;;6.10;;
61962;SDS011;47927;42.646;23.096;2023-06-22T10:02:06;6.65;;;5.95;;
61962;SDS011;47927;42.646;23.096;2023-06-22T10:04:32;7.80;;;6.22;;
61962;SDS011;47927;42.646;23.096;2023-06-22T10:06:58;8.60;;;5.80;;
61962;SDS011;47927;42.646;23.096;2023-06-22T10:09:24;6.57;;;5.72;;
61962;SDS011;47927;42.646;23.096;2023-06-22T10:11:50;6.75;;;5.65;;
61962;SDS011;47927;42.646;23.096;2023-06-22T10:14:15;6.68;;;5.70;;
61962;SDS011;47927;42.646;23.096;2023-06-22T10:16:41;10.13;;;5.95;;
61962;SDS011;47927;42.646;23.096;2023-06-22T10:19:07;7.68;;;5.90;;
61962;SDS011;47927;42.646;23.096;2023-06-22T10:21:32;6.07;;;5.47;;
61962;SDS011;47927;42.646;23.096;2023-06-22T10:23:58;8.10;;;5.70;;
61962;SDS011;47927;42.646;23.096;2023-06-22T10:26:26;8.48;;;5.32;;
61962;SDS011;47927;42.646;23.096;2023-06-22T10:28:54;7.10;;;5.47;;
61962;SDS011;47927;42.646;23.096;2023-06-22T10:31:19;9.57;;;5.70;;
61962;SDS011;47927;42.646;23.096;2023-06-22T10:33:45;6.78;;;5.22;;
61962;SDS011;47927;42.646;23.096;2023-06-22T10:36:11;6.40;;;5.50;;
61962;SDS011;47927;42.646;23.096;2023-06-22T10:38:36;6.63;;;5.72;;
61962;SDS011;47927;42.646;23.096;2023-06-22T10:41:02;6.95;;;5.50;;
61962;SDS011;47927;42.646;23.096;2023-06-22T10:43:27;6.30;;;5.45;;
61962;SDS011;47927;42.646;23.096;2023-06-22T10:45:53;7.57;;;5.57;;
61962;SDS011;47927;42.646;23.096;2023-06-22T10:48:18;6.20;;;5.47;;
61962;SDS011;47927;42.646;23.096;2023-06-22T10:50:44;8.13;;;5.93;;
61962;SDS011;47927;42.646;23.096;2023-06-22T10:53:09;15.15;;;6.20;;
61962;SDS011;47927;42.646;23.096;2023-06-22T10:55:35;7.97;;;5.70;;
61962;SDS011;47927;42.646;23.096;2023-06-22T10:58:00;7.18;;;6.00;;
61962;SDS011;47927;42.646;23.096;2023-06-22T11:00:26;6.35;;;5.70;;
61962;SDS011;47927;42.646;23.096;2023-06-22T11:02:51;6.35;;;5.60;;
61962;SDS011;47927;42.646;23.096;2023-06-22T11:05:17;8.50;;;6.10;;
61962;SDS011;47927;42.646;23.096;2023-06-22T11:07:43;7.85;;;6.38;;
61962;SDS011;47927;42.646;23.096;2023-06-22T11:10:09;7.18;;;5.35;;
61962;SDS011;47927;42.646;23.096;2023-06-22T11:12:35;7.03;;;5.60;;
61962;SDS011;47927;42.646;23.096;2023-06-22T11:15:01;7.22;;;5.13;;
61962;SDS011;47927;42.646;23.096;2023-06-22T11:17:26;6.88;;;5.80;;
61962;SDS011;47927;42.646;23.096;2023-06-22T11:19:52;6.07;;;5.47;;
61962;SDS011;47927;42.646;23.096;2023-06-22T11:22:18;9.68;;;5.50;;
61962;SDS011;47927;42.646;23.096;2023-06-22T11:24:43;8.15;;;5.50;;
61962;SDS011;47927;42.646;23.096;2023-06-22T11:27:08;6.32;;;5.50;;
61962;SDS011;47927;42.646;23.096;2023-06-22T11:29:34;6.60;;;5.82;;
61962;SDS011;47927;42.646;23.096;2023-06-22T11:32:00;5.70;;;5.05;;
61962;SDS011;47927;42.646;23.096;2023-06-22T11:34:26;8.48;;;5.50;;
61962;SDS011;47927;42.646;23.096;2023-06-22T11:36:53;6.63;;;5.10;;
61962;SDS011;47927;42.646;23.096;2023-06-22T11:39:18;6.43;;;5.15;;
61962;SDS011;47927;42.646;23.096;2023-06-22T11:41:44;10.43;;;5.43;;
61962;SDS011;47927;42.646;23.096;2023-06-22T11:44:28;7.18;;;5.50;;
61962;SDS011;47927;42.646;23.096;2023-06-22T11:46:53;6.32;;;5.40;;
61962;SDS011;47927;42.646;23.096;2023-06-22T11:49:19;6.07;;;5.25;;
61962;SDS011;47927;42.646;23.096;2023-06-22T11:51:44;7.55;;;5.35;;
61962;SDS011;47927;42.646;23.096;2023-06-22T11:54:10;6.43;;;5.20;;
61962;SDS011;47927;42.646;23.096;2023-06-22T11:56:35;6.50;;;5.80;;
61962;SDS011;47927;42.646;23.096;2023-06-22T11:59:01;6.15;;;5.00;;
61962;SDS011;47927;42.646;23.096;2023-06-22T12:01:27;6.50;;;5.25;;
61962;SDS011;47927;42.646;23.096;2023-06-22T12:03:52;5.90;;;5.22;;
61962;SDS011;47927;42.646;23.096;2023-06-22T12:06:18;6.32;;;5.28;;
61962;SDS011;47927;42.646;23.096;2023-06-22T12:08:43;6.68;;;5.35;;
61962;SDS011;47927;42.646;23.096;2023-06-22T12:11:09;7.38;;;5.50;;
61962;SDS011;47927;42.646;23.096;2023-06-22T12:13:35;6.80;;;5.70;;
61962;SDS011;47927;42.646;23.096;2023-06-22T12:16:00;6.03;;;4.90;;
61962;SDS011;47927;42.646;23.096;2023-06-22T12:18:26;5.88;;;5.10;;
61962;SDS011;47927;42.646;23.096;2023-06-22T12:20:51;8.15;;;6.22;;
61962;SDS011;47927;42.646;23.096;2023-06-22T12:23:17;7.60;;;5.80;;
61962;SDS011;47927;42.646;23.096;2023-06-22T12:25:44;9.45;;;6.03;;
61962;SDS011;47927;42.646;23.096;2023-06-22T12:28:10;15.43;;;5.72;;
61962;SDS011;47927;42.646;23.096;2023-06-22T12:30:35;10.20;;;5.38;;
61962;SDS011;47927;42.646;23.096;2023-06-22T12:33:01;7.57;;;5.80;;
61962;SDS011;47927;42.646;23.096;2023-06-22T12:35:26;9.50;;;6.07;;
61962;SDS011;47927;42.646;23.096;2023-06-22T12:37:52;7.63;;;5.00;;
61962;SDS011;47927;42.646;23.096;2023-06-22T12:40:18;9.52;;;5.85;;
61962;SDS011;47927;42.646;23.096;2023-06-22T12:42:44;11.77;;;6.35;;
61962;SDS011;47927;42.646;23.096;2023-06-22T12:45:10;15.68;;;6.50;;
61962;SDS011;47927;42.646;23.096;2023-06-22T12:47:35;18.02;;;8.20;;
61962;SDS011;47927;42.646;23.096;2023-06-22T12:50:01;13.60;;;6.90;;
61962;SDS011;47927;42.646;23.096;2023-06-22T12:52:27;15.93;;;7.85;;
61962;SDS011;47927;42.646;23.096;2023-06-22T12:54:53;10.77;;;5.50;;
61962;SDS011;47927;42.646;23.096;2023-06-22T12:57:19;9.52;;;4.65;;
61962;SDS011;47927;42.646;23.096;2023-06-22T12:59:45;9.98;;;4.70;;
61962;SDS011;47927;42.646;23.096;2023-06-22T13:02:10;8.10;;;4.60;;
61962;SDS011;47927;42.646;23.096;2023-06-22T13:04:36;8.93;;;3.72;;
61962;SDS011;47927;42.646;23.096;2023-06-22T13:07:01;9.63;;;4.35;;
61962;SDS011;47927;42.646;23.096;2023-06-22T13:09:27;8.25;;;4.18;;
61962;SDS011;47927;42.646;23.096;2023-06-22T13:11:53;8.30;;;4.20;;
61962;SDS011;47927;42.646;23.096;2023-06-22T13:14:18;9.18;;;4.80;;
61962;SDS011;47927;42.646;23.096;2023-06-22T13:16:44;6.75;;;4.38;;
61962;SDS011;47927;42.646;23.096;2023-06-22T13:19:10;7.28;;;5.85;;
61962;SDS011;47927;42.646;23.096;2023-06-22T13:21:35;7.30;;;5.20;;
61962;SDS011;47927;42.646;23.096;2023-06-22T13:24:01;10.93;;;5.28;;
61962;SDS011;47927;42.646;23.096;2023-06-22T13:26:26;6.88;;;4.93;;
61962;SDS011;47927;42.646;23.096;2023-06-22T13:28:54;7.57;;;5.03;;
61962;SDS011;47927;42.646;23.096;2023-06-22T13:31:19;7.88;;;5.55;;
61962;SDS011;47927;42.646;23.096;2023-06-22T13:33:45;8.90;;;6.70;;
61962;SDS011;47927;42.646;23.096;2023-06-22T13:36:13;7.88;;;6.00;;
61962;SDS011;47927;42.646;23.096;2023-06-22T13:38:38;8.30;;;6.25;;
61962;SDS011;47927;42.646;23.096;2023-06-22T13:41:07;7.45;;;5.80;;
61962;SDS011;47927;42.646;23.096;2023-06-22T13:43:34;8.23;;;6.07;;
61962;SDS011;47927;42.646;23.096;2023-06-22T13:45:59;8.38;;;5.80;;
61962;SDS011;47927;42.646;23.096;2023-06-22T13:48:25;8.25;;;5.50;;
61962;SDS011;47927;42.646;23.096;2023-06-22T13:50:51;6.88;;;5.35;;
61962;SDS011;47927;42.646;23.096;2023-06-22T13:53:17;9.55;;;5.78;;
61962;SDS011;47927;42.646;23.096;2023-06-22T13:55:43;7.80;;;5.78;;
61962;SDS011;47927;42.646;23.096;2023-06-22T13:58:08;8.32;;;5.63;;
61962;SDS011;47927;42.646;23.096;2023-06-22T14:00:34;8.43;;;5.38;;
61962;SDS011;47927;42.646;23.096;2023-06-22T14:03:02;9.43;;;5.75;;
61962;SDS011;47927;42.646;23.096;2023-06-22T14:05:28;8.20;;;6.10;;
61962;SDS011;47927;42.646;23.096;2023-06-22T14:07:53;7.25;;;6.07;;
61962;SDS011;47927;42.646;23.096;2023-06-22T14:10:19;8.75;;;5.85;;
61962;SDS011;47927;42.646;23.096;2023-06-22T14:15:32;12.55;;;6.50;;
61962;SDS011;47927;42.646;23.096;2023-06-22T14:17:57;9.48;;;6.45;;
61962;SDS011;47927;42.646;23.096;2023-06-22T14:20:25;9.18;;;6.47;;
61962;SDS011;47927;42.646;23.096;2023-06-22T14:22:50;10.90;;;6.60;;
61962;SDS011;47927;42.646;23.096;2023-06-22T14:25:16;10.48;;;7.03;;
61962;SDS011;47927;42.646;23.096;2023-06-22T14:27:41;9.35;;;6.82;;
61962;SDS011;47927;42.646;23.096;2023-06-22T14:30:07;8.10;;;6.72;;
61962;SDS011;47927;42.646;23.096;2023-06-22T14:32:33;9.15;;;6.63;;
61962;SDS011;47927;42.646;23.096;2023-06-22T14:35:16;9.82;;;7.22;;
61962;SDS011;47927;42.646;23.096;2023-06-22T14:37:42;9.48;;;6.97;;
61962;SDS011;47927;42.646;23.096;2023-06-22T14:40:08;12.07;;;7.13;;
61962;SDS011;47927;42.646;23.096;2023-06-22T14:42:33;9.38;;;7.82;;